createdAt,value
2023-10-26T08:32:00.962Z,12.45
2023-10-26T08:37:13.316Z,12.38
2023-10-26T08:42:16.865Z,12.62
2023-10-26T08:47:22.912Z,12.95
2023-10-26T08:52:28.156Z,12.90
2023-10-26T08:57:30.998Z,12.95
2023-10-26T09:02:32.812Z,13.01
2023-10-26T09:07:34.600Z,13.28
2023-10-26T09:12:36.466Z,13.48
2023-10-26T09:17:38.333Z,13.50
2023-10-26T09:22:41.332Z,13.47
2023-10-26T09:27:44.684Z,13.56
2023-10-26T09:32:47.275Z,14.01
2023-10-26T09:37:52.279Z,14.15
2023-10-26T09:42:57.329Z,14.01
2023-10-26T09:48:01.320Z,14.05
2023-10-26T09:53:03.362Z,14.02
2023-10-26T09:58:08.177Z,14.27
2023-10-26T10:03:15.340Z,14.19
2023-10-26T10:08:55.562Z,14.12
2023-10-26T10:13:57.236Z,14.20
2023-10-26T10:19:17.718Z,14.48
2023-10-26T10:24:41.185Z,14.84
2023-10-26T10:29:43.822Z,14.26
2023-10-26T10:34:47.270Z,14.36
2023-10-26T10:40:13.098Z,13.97
2023-10-26T10:45:15.778Z,13.75
2023-10-26T10:50:31.234Z,13.82
2023-10-26T10:55:34.153Z,13.75
2023-10-26T11:00:47.241Z,13.77
2023-10-26T11:05:49.356Z,13.64
2023-10-26T11:10:51.467Z,13.64
2023-10-26T11:15:53.166Z,13.31
2023-10-26T11:20:54.822Z,13.46
2023-10-26T11:25:56.504Z,13.53
2023-10-26T11:31:00.487Z,13.63
2023-10-26T11:36:11.011Z,13.95
2023-10-26T11:41:19.605Z,14.03
2023-10-26T11:46:36.373Z,14.18
2023-10-26T11:51:47.362Z,13.89
2023-10-26T11:56:50.761Z,13.63
2023-10-26T12:01:53.865Z,14.01
2023-10-26T12:06:56.214Z,14.06
2023-10-26T12:11:58.015Z,14.25
2023-10-26T12:17:00.160Z,14.24
2023-10-26T12:22:03.372Z,14.48
2023-10-26T12:27:05.654Z,14.44
2023-10-26T12:32:08.627Z,13.88
2023-10-26T12:37:10.750Z,13.67
2023-10-26T12:42:13.179Z,13.87
2023-10-26T12:47:17.971Z,14.23
2023-10-26T12:52:20.151Z,13.90
2023-10-26T12:57:22.462Z,13.84
2023-10-26T13:02:24.613Z,13.99
2023-10-26T13:07:28.531Z,13.73
2023-10-26T13:12:30.592Z,13.91
2023-10-26T13:17:34.282Z,13.93
2023-10-26T13:22:39.874Z,13.86
2023-10-26T13:27:42.143Z,13.70
2023-10-26T13:32:48.946Z,13.22
2023-10-26T13:37:52.280Z,13.75
2023-10-26T13:42:55.678Z,13.01
2023-10-26T13:48:00.602Z,13.14
2023-10-26T13:53:03.452Z,13.70
2023-10-26T13:58:18.079Z,13.34
2023-10-26T14:03:20.373Z,13.49
2023-10-26T14:08:31.506Z,13.74
2023-10-26T14:13:35.784Z,13.78
2023-10-26T14:18:39.215Z,13.87
2023-10-26T14:28:57.617Z,13.72
2023-10-26T14:34:01.894Z,13.20
2023-10-26T14:39:05.824Z,13.54
2023-10-26T14:44:10.685Z,13.25
2023-10-26T14:49:12.932Z,12.73
2023-10-26T14:54:15.413Z,13.28
2023-10-26T14:59:19.836Z,12.63
2023-10-26T15:04:23.360Z,13.49
2023-10-26T15:10:20.171Z,13.62
2023-10-26T15:14:55.697Z,13.55
2023-10-26T15:19:58.399Z,12.63
2023-10-26T15:25:00.680Z,12.99
2023-10-26T15:30:05.033Z,12.83
2023-10-26T15:35:07.474Z,12.84
2023-10-26T15:40:15.526Z,12.76
2023-10-26T15:45:18.304Z,12.77
2023-10-26T15:50:21.257Z,12.63
2023-10-26T15:55:23.517Z,12.66
2023-10-26T16:00:26.467Z,12.27
2023-10-26T16:05:33.713Z,12.57
2023-10-26T16:10:36.424Z,12.75
2023-10-26T16:15:39.340Z,12.24
2023-10-26T16:20:46.715Z,12.61
2023-10-26T16:25:50.346Z,12.13
2023-10-26T16:30:57.286Z,11.97
2023-10-26T16:36:00.856Z,12.21
2023-10-26T16:41:07.301Z,11.85
2023-10-26T16:46:14.614Z,12.06
2023-10-26T16:51:17.382Z,12.16
2023-10-26T16:56:20.469Z,11.89
2023-10-26T17:01:24.438Z,11.99
2023-10-26T17:06:26.888Z,11.70
2023-10-26T17:11:29.653Z,11.44
2023-10-26T17:16:33.791Z,11.61
2023-10-26T17:21:36.370Z,11.32
2023-10-26T17:26:38.719Z,11.29
2023-10-26T17:31:40.764Z,11.10
2023-10-26T17:36:45.606Z,10.90
2023-10-26T17:41:50.739Z,10.98
2023-10-26T17:46:53.322Z,11.12
2023-10-26T17:51:55.944Z,11.01
2023-10-26T17:57:00.861Z,10.95
2023-10-26T18:02:06.600Z,10.86
2023-10-26T18:07:16.238Z,10.96
2023-10-26T18:12:21.193Z,10.77
2023-10-26T18:17:26.370Z,10.55
2023-10-26T18:22:28.783Z,10.69
2023-10-26T18:27:32.137Z,10.53
2023-10-26T18:32:38.230Z,10.59
2023-10-26T18:37:45.807Z,10.15
2023-10-26T18:42:49.562Z,10.31
2023-10-26T18:47:54.207Z,10.11
2023-10-26T18:53:00.989Z,10.34
2023-10-26T18:58:03.830Z,9.99
2023-10-26T19:03:07.796Z,10.26
2023-10-26T19:08:10.239Z,10.01
2023-10-26T19:13:13.616Z,10.03
2023-10-26T19:18:16.210Z,10.03
2023-10-26T19:23:20.873Z,10.03
2023-10-26T19:28:23.410Z,10.06
2023-10-26T19:33:27.216Z,10.02
2023-10-26T19:38:34.566Z,10.23
2023-10-26T19:43:37.057Z,10.30
2023-10-26T19:48:39.106Z,10.14
2023-10-26T19:53:41.866Z,10.12
2023-10-26T19:58:43.964Z,10.26
2023-10-26T20:03:47.322Z,10.13
2023-10-26T20:08:51.435Z,9.99
2023-10-26T20:13:53.755Z,9.87
2023-10-26T20:19:00.638Z,10.16
2023-10-26T20:24:02.426Z,10.29
2023-10-26T20:29:04.816Z,10.32
2023-10-26T20:34:06.619Z,10.26
2023-10-26T20:39:10.823Z,9.96
